sensor_id;sensor_type;location;lat;lon;timestamp;P1;durP1;ratioP1;P2;durP2;ratioP2
4630;SDS011;2328;48.170;11.602;2024-02-21T00:01:18;0.70;;;0.70;;
4630;SDS011;2328;48.170;11.602;2024-02-21T00:03:46;1.90;;;0.87;;
4630;SDS011;2328;48.170;11.602;2024-02-21T00:06:15;0.73;;;0.60;;
4630;SDS011;2328;48.170;11.602;2024-02-21T00:08:45;2.83;;;0.60;;
4630;SDS011;2328;48.170;11.602;2024-02-21T00:11:13;0.90;;;0.80;;
4630;SDS011;2328;48.170;11.602;2024-02-21T00:13:42;0.63;;;0.60;;
4630;SDS011;2328;48.170;11.602;2024-02-21T00:16:12;2.00;;;0.90;;
4630;SDS011;2328;48.170;11.602;2024-02-21T00:18:42;0.97;;;0.80;;
4630;SDS011;2328;48.170;11.602;2024-02-21T00:21:11;1.20;;;0.70;;
4630;SDS011;2328;48.170;11.602;2024-02-21T00:23:44;0.83;;;0.80;;
4630;SDS011;2328;48.170;11.602;2024-02-21T00:26:14;0.63;;;0.63;;
4630;SDS011;2328;48.170;11.602;2024-02-21T00:28:42;0.60;;;0.50;;
4630;SDS011;2328;48.170;11.602;2024-02-21T00:31:12;1.20;;;0.73;;
4630;SDS011;2328;48.170;11.602;2024-02-21T00:33:40;2.90;;;0.90;;
4630;SDS011;2328;48.170;11.602;2024-02-21T00:36:09;2.23;;;0.77;;
4630;SDS011;2328;48.170;11.602;2024-02-21T00:38:37;0.70;;;0.60;;
4630;SDS011;2328;48.170;11.602;2024-02-21T00:41:05;1.20;;;0.60;;
4630;SDS011;2328;48.170;11.602;2024-02-21T00:43:34;0.83;;;0.70;;
4630;SDS011;2328;48.170;11.602;2024-02-21T00:46:02;2.37;;;1.00;;
4630;SDS011;2328;48.170;11.602;2024-02-21T00:48:35;3.03;;;0.80;;
4630;SDS011;2328;48.170;11.602;2024-02-21T00:51:04;0.60;;;0.60;;
4630;SDS011;2328;48.170;11.602;2024-02-21T00:53:32;1.30;;;0.63;;
4630;SDS011;2328;48.170;11.602;2024-02-21T00:56:05;1.50;;;1.10;;
4630;SDS011;2328;48.170;11.602;2024-02-21T00:58:33;2.20;;;0.70;;
4630;SDS011;2328;48.170;11.602;2024-02-21T01:01:02;1.47;;;0.67;;
4630;SDS011;2328;48.170;11.602;2024-02-21T01:03:32;0.77;;;0.77;;
4630;SDS011;2328;48.170;11.602;2024-02-21T01:06:02;4.73;;;0.90;;
4630;SDS011;2328;48.170;11.602;2024-02-21T01:08:33;3.03;;;1.30;;
4630;SDS011;2328;48.170;11.602;2024-02-21T01:11:01;1.43;;;0.90;;
4630;SDS011;2328;48.170;11.602;2024-02-21T01:13:30;4.23;;;1.10;;
4630;SDS011;2328;48.170;11.602;2024-02-21T01:15:58;1.17;;;0.70;;
4630;SDS011;2328;48.170;11.602;2024-02-21T01:18:26;1.10;;;0.67;;
4630;SDS011;2328;48.170;11.602;2024-02-21T01:20:55;1.60;;;0.97;;
4630;SDS011;2328;48.170;11.602;2024-02-21T01:23:25;1.30;;;0.63;;
4630;SDS011;2328;48.170;11.602;2024-02-21T01:25:53;1.33;;;1.10;;
4630;SDS011;2328;48.170;11.602;2024-02-21T01:28:21;1.20;;;0.80;;
4630;SDS011;2328;48.170;11.602;2024-02-21T01:30:50;2.10;;;0.70;;
4630;SDS011;2328;48.170;11.602;2024-02-21T01:33:18;0.83;;;0.50;;
4630;SDS011;2328;48.170;11.602;2024-02-21T01:35:46;1.27;;;0.63;;
4630;SDS011;2328;48.170;11.602;2024-02-21T01:38:16;0.70;;;0.67;;
4630;SDS011;2328;48.170;11.602;2024-02-21T01:40:46;2.20;;;0.70;;
4630;SDS011;2328;48.170;11.602;2024-02-21T01:43:17;0.60;;;0.60;;
4630;SDS011;2328;48.170;11.602;2024-02-21T01:45:48;3.30;;;1.20;;
4630;SDS011;2328;48.170;11.602;2024-02-21T01:48:17;2.40;;;0.57;;
4630;SDS011;2328;48.170;11.602;2024-02-21T01:50:47;3.70;;;1.03;;
4630;SDS011;2328;48.170;11.602;2024-02-21T01:53:18;2.63;;;1.23;;
4630;SDS011;2328;48.170;11.602;2024-02-21T01:55:50;1.17;;;1.03;;
4630;SDS011;2328;48.170;11.602;2024-02-21T01:58:18;1.93;;;0.80;;
4630;SDS011;2328;48.170;11.602;2024-02-21T02:00:47;2.87;;;0.93;;
4630;SDS011;2328;48.170;11.602;2024-02-21T02:03:16;3.33;;;1.10;;
4630;SDS011;2328;48.170;11.602;2024-02-21T02:05:44;0.83;;;0.60;;
4630;SDS011;2328;48.170;11.602;2024-02-21T02:08:13;0.93;;;0.70;;
4630;SDS011;2328;48.170;11.602;2024-02-21T02:10:43;0.50;;;0.40;;
4630;SDS011;2328;48.170;11.602;2024-02-21T02:13:14;2.80;;;1.13;;
4630;SDS011;2328;48.170;11.602;2024-02-21T02:15:43;1.50;;;0.90;;
4630;SDS011;2328;48.170;11.602;2024-02-21T02:18:13;1.73;;;1.00;;
4630;SDS011;2328;48.170;11.602;2024-02-21T02:20:43;2.70;;;0.60;;
4630;SDS011;2328;48.170;11.602;2024-02-21T02:26:04;3.37;;;1.13;;
4630;SDS011;2328;48.170;11.602;2024-02-21T02:28:33;3.07;;;1.13;;
4630;SDS011;2328;48.170;11.602;2024-02-21T02:31:03;3.20;;;0.77;;
4630;SDS011;2328;48.170;11.602;2024-02-21T02:33:31;3.03;;;0.70;;
4630;SDS011;2328;48.170;11.602;2024-02-21T02:36:00;1.77;;;1.00;;
4630;SDS011;2328;48.170;11.602;2024-02-21T02:38:30;0.60;;;0.50;;
4630;SDS011;2328;48.170;11.602;2024-02-21T02:40:59;0.87;;;0.80;;
4630;SDS011;2328;48.170;11.602;2024-02-21T02:43:27;1.23;;;0.70;;
4630;SDS011;2328;48.170;11.602;2024-02-21T02:45:59;1.77;;;0.90;;
4630;SDS011;2328;48.170;11.602;2024-02-21T02:48:28;2.07;;;0.73;;
4630;SDS011;2328;48.170;11.602;2024-02-21T02:50:57;3.53;;;1.10;;
4630;SDS011;2328;48.170;11.602;2024-02-21T02:53:36;1.23;;;0.60;;
4630;SDS011;2328;48.170;11.602;2024-02-21T02:56:04;0.97;;;0.80;;
4630;SDS011;2328;48.170;11.602;2024-02-21T02:58:33;0.90;;;0.77;;
4630;SDS011;2328;48.170;11.602;2024-02-21T03:01:02;1.00;;;0.90;;
4630;SDS011;2328;48.170;11.602;2024-02-21T03:03:31;1.47;;;0.90;;
4630;SDS011;2328;48.170;11.602;2024-02-21T03:06:00;1.93;;;0.83;;
4630;SDS011;2328;48.170;11.602;2024-02-21T03:08:29;1.17;;;0.80;;
4630;SDS011;2328;48.170;11.602;2024-02-21T03:11:00;0.70;;;0.70;;
4630;SDS011;2328;48.170;11.602;2024-02-21T03:13:29;0.77;;;0.63;;
4630;SDS011;2328;48.170;11.602;2024-02-21T03:15:58;0.90;;;0.70;;
4630;SDS011;2328;48.170;11.602;2024-02-21T03:18:27;0.87;;;0.60;;
4630;SDS011;2328;48.170;11.602;2024-02-21T03:20:56;1.00;;;0.73;;
4630;SDS011;2328;48.170;11.602;2024-02-21T03:23:25;1.00;;;0.90;;
4630;SDS011;2328;48.170;11.602;2024-02-21T03:25:54;1.70;;;0.60;;
4630;SDS011;2328;48.170;11.602;2024-02-21T03:28:27;0.70;;;0.63;;
4630;SDS011;2328;48.170;11.602;2024-02-21T03:30:56;1.00;;;0.63;;
4630;SDS011;2328;48.170;11.602;2024-02-21T03:33:24;4.23;;;0.90;;
4630;SDS011;2328;48.170;11.602;2024-02-21T03:35:53;1.33;;;0.97;;
4630;SDS011;2328;48.170;11.602;2024-02-21T03:38:22;3.23;;;0.80;;
4630;SDS011;2328;48.170;11.602;2024-02-21T03:40:51;0.90;;;0.70;;
4630;SDS011;2328;48.170;11.602;2024-02-21T03:43:22;1.77;;;0.83;;
4630;SDS011;2328;48.170;11.602;2024-02-21T03:45:52;0.60;;;0.50;;
4630;SDS011;2328;48.170;11.602;2024-02-21T03:48:20;1.23;;;1.17;;
4630;SDS011;2328;48.170;11.602;2024-02-21T03:50:48;1.23;;;0.67;;
4630;SDS011;2328;48.170;11.602;2024-02-21T03:53:17;0.97;;;0.70;;
4630;SDS011;2328;48.170;11.602;2024-02-21T03:55:46;0.73;;;0.60;;
4630;SDS011;2328;48.170;11.602;2024-02-21T03:58:14;2.50;;;0.63;;
4630;SDS011;2328;48.170;11.602;2024-02-21T04:00:45;0.80;;;0.63;;
4630;SDS011;2328;48.170;11.602;2024-02-21T04:03:13;1.17;;;0.53;;
4630;SDS011;2328;48.170;11.602;2024-02-21T04:05:41;0.90;;;0.50;;
4630;SDS011;2328;48.170;11.602;2024-02-21T04:08:10;5.23;;;0.83;;
4630;SDS011;2328;48.170;11.602;2024-02-21T04:10:38;1.03;;;0.50;;
4630;SDS011;2328;48.170;11.602;2024-02-21T04:13:08;0.90;;;0.80;;
4630;SDS011;2328;48.170;11.602;2024-02-21T04:15:37;1.57;;;0.50;;
4630;SDS011;2328;48.170;11.602;2024-02-21T04:18:08;0.50;;;0.40;;
4630;SDS011;2328;48.170;11.602;2024-02-21T04:20:36;0.80;;;0.67;;
4630;SDS011;2328;48.170;11.602;2024-02-21T04:23:05;1.00;;;0.40;;
4630;SDS011;2328;48.170;11.602;2024-02-21T04:25:33;2.30;;;0.50;;
4630;SDS011;2328;48.170;11.602;2024-02-21T04:28:02;0.60;;;0.50;;
4630;SDS011;2328;48.170;11.602;2024-02-21T04:30:30;0.80;;;0.40;;
4630;SDS011;2328;48.170;11.602;2024-02-21T04:32:59;0.60;;;0.50;;
4630;SDS011;2328;48.170;11.602;2024-02-21T04:35:29;1.23;;;0.80;;
4630;SDS011;2328;48.170;11.602;2024-02-21T04:37:57;0.63;;;0.50;;
4630;SDS011;2328;48.170;11.602;2024-02-21T04:40:26;1.57;;;0.50;;
4630;SDS011;2328;48.170;11.602;2024-02-21T04:42:54;7.17;;;0.50;;
4630;SDS011;2328;48.170;11.602;2024-02-21T04:45:23;0.90;;;0.70;;
4630;SDS011;2328;48.170;11.602;2024-02-21T04:47:51;0.60;;;0.50;;
4630;SDS011;2328;48.170;11.602;2024-02-21T04:50:20;3.13;;;0.57;;
4630;SDS011;2328;48.170;11.602;2024-02-21T04:52:49;0.60;;;0.40;;
4630;SDS011;2328;48.170;11.602;2024-02-21T04:55:24;0.50;;;0.40;;
4630;SDS011;2328;48.170;11.602;2024-02-21T04:57:52;0.60;;;0.40;;
4630;SDS011;2328;48.170;11.602;2024-02-21T05:00:21;2.50;;;0.60;;
4630;SDS011;2328;48.170;11.602;2024-02-21T05:02:50;2.00;;;0.50;;
4630;SDS011;2328;48.170;11.602;2024-02-21T05:05:18;0.70;;;0.40;;
4630;SDS011;2328;48.170;11.602;2024-02-21T05:07:47;0.70;;;0.63;;
4630;SDS011;2328;48.170;11.602;2024-02-21T05:10:17;0.70;;;0.50;;
4630;SDS011;2328;48.170;11.602;2024-02-21T05:12:47;3.27;;;0.90;;
4630;SDS011;2328;48.170;11.602;2024-02-21T05:15:16;1.07;;;0.90;;
4630;SDS011;2328;48.170;11.602;2024-02-21T05:17:46;2.13;;;0.90;;
4630;SDS011;2328;48.170;11.602;2024-02-21T05:20:14;0.70;;;0.60;;
4630;SDS011;2328;48.170;11.602;2024-02-21T05:22:43;0.83;;;0.57;;
4630;SDS011;2328;48.170;11.602;2024-02-21T05:25:12;0.83;;;0.50;;
4630;SDS011;2328;48.170;11.602;2024-02-21T05:27:42;0.70;;;0.40;;
4630;SDS011;2328;48.170;11.602;2024-02-21T05:30:12;0.70;;;0.40;;
4630;SDS011;2328;48.170;11.602;2024-02-21T05:32:41;0.60;;;0.40;;
4630;SDS011;2328;48.170;11.602;2024-02-21T05:35:09;2.90;;;0.63;;
4630;SDS011;2328;48.170;11.602;2024-02-21T05:37:39;0.50;;;0.40;;
4630;SDS011;2328;48.170;11.602;2024-02-21T05:40:07;0.90;;;0.90;;
4630;SDS011;2328;48.170;11.602;2024-02-21T05:42:39;0.60;;;0.40;;
4630;SDS011;2328;48.170;11.602;2024-02-21T05:45:09;0.70;;;0.47;;
4630;SDS011;2328;48.170;11.602;2024-02-21T05:47:39;0.77;;;0.60;;
4630;SDS011;2328;48.170;11.602;2024-02-21T05:50:14;1.23;;;1.10;;
4630;SDS011;2328;48.170;11.602;2024-02-21T05:52:43;0.50;;;0.40;;
4630;SDS011;2328;48.170;11.602;2024-02-21T05:55:12;2.00;;;0.67;;
4630;SDS011;2328;48.170;11.602;2024-02-21T05:57:41;1.10;;;0.70;;
4630;SDS011;2328;48.170;11.602;2024-02-21T06:00:12;2.97;;;0.67;;
4630;SDS011;2328;48.170;11.602;2024-02-21T06:02:41;0.83;;;0.60;;
4630;SDS011;2328;48.170;11.602;2024-02-21T06:05:10;1.30;;;0.90;;
4630;SDS011;2328;48.170;11.602;2024-02-21T06:07:38;0.70;;;0.50;;
4630;SDS011;2328;48.170;11.602;2024-02-21T06:10:07;8.60;;;0.93;;
4630;SDS011;2328;48.170;11.602;2024-02-21T06:12:37;1.30;;;0.80;;
4630;SDS011;2328;48.170;11.602;2024-02-21T06:15:07;1.17;;;0.60;;
4630;SDS011;2328;48.170;11.602;2024-02-21T06:20:29;2.10;;;0.43;;
4630;SDS011;2328;48.170;11.602;2024-02-21T06:22:58;0.70;;;0.50;;
4630;SDS011;2328;48.170;11.602;2024-02-21T06:25:28;1.00;;;0.70;;
4630;SDS011;2328;48.170;11.602;2024-02-21T06:27:57;0.50;;;0.40;;
4630;SDS011;2328;48.170;11.602;2024-02-21T06:30:27;4.53;;;0.50;;
4630;SDS011;2328;48.170;11.602;2024-02-21T06:33:16;1.10;;;0.50;;
4630;SDS011;2328;48.170;11.602;2024-02-21T06:35:49;1.00;;;0.40;;
4630;SDS011;2328;48.170;11.602;2024-02-21T06:38:19;0.83;;;0.40;;
4630;SDS011;2328;48.170;11.602;2024-02-21T06:40:49;0.70;;;0.50;;
4630;SDS011;2328;48.170;11.602;2024-02-21T06:43:19;0.50;;;0.40;;
4630;SDS011;2328;48.170;11.602;2024-02-21T06:45:49;0.70;;;0.40;;
4630;SDS011;2328;48.170;11.602;2024-02-21T06:48:36;0.50;;;0.43;;
4630;SDS011;2328;48.170;11.602;2024-02-21T06:51:07;2.27;;;0.53;;
4630;SDS011;2328;48.170;11.602;2024-02-21T06:53:37;0.87;;;0.60;;
4630;SDS011;2328;48.170;11.602;2024-02-21T06:56:07;0.50;;;0.40;;
4630;SDS011;2328;48.170;11.602;2024-02-21T06:58:35;0.50;;;0.40;;
4630;SDS011;2328;48.170;11.602;2024-02-21T07:01:06;0.50;;;0.40;;
4630;SDS011;2328;48.170;11.602;2024-02-21T07:03:37;0.60;;;0.40;;
4630;SDS011;2328;48.170;11.602;2024-02-21T07:06:06;0.50;;;0.40;;
4630;SDS011;2328;48.170;11.602;2024-02-21T07:08:36;1.00;;;0.60;;
4630;SDS011;2328;48.170;11.602;2024-02-21T07:11:08;0.60;;;0.60;;
4630;SDS011;2328;48.170;11.602;2024-02-21T07:13:37;1.67;;;0.93;;
4630;SDS011;2328;48.170;11.602;2024-02-21T07:16:06;1.30;;;0.60;;
4630;SDS011;2328;48.170;11.602;2024-02-21T07:18:40;2.50;;;0.60;;
4630;SDS011;2328;48.170;11.602;2024-02-21T07:21:12;0.60;;;0.47;;
4630;SDS011;2328;48.170;11.602;2024-02-21T07:23:41;0.50;;;0.40;;
4630;SDS011;2328;48.170;11.602;2024-02-21T07:26:10;0.80;;;0.53;;
4630;SDS011;2328;48.170;11.602;2024-02-21T07:28:39;0.50;;;0.40;;
4630;SDS011;2328;48.170;11.602;2024-02-21T07:31:08;0.77;;;0.40;;
4630;SDS011;2328;48.170;11.602;2024-02-21T07:33:38;0.50;;;0.47;;
4630;SDS011;2328;48.170;11.602;2024-02-21T07:36:14;0.70;;;0.57;;
4630;SDS011;2328;48.170;11.602;2024-02-21T07:38:44;1.17;;;0.50;;
4630;SDS011;2328;48.170;11.602;2024-02-21T07:41:13;0.80;;;0.50;;
4630;SDS011;2328;48.170;11.602;2024-02-21T07:43:46;1.10;;;0.37;;
4630;SDS011;2328;48.170;11.602;2024-02-21T07:46:15;0.60;;;0.40;;
4630;SDS011;2328;48.170;11.602;2024-02-21T07:48:47;0.93;;;0.40;;
4630;SDS011;2328;48.170;11.602;2024-02-21T07:51:16;0.53;;;0.50;;
4630;SDS011;2328;48.170;11.602;2024-02-21T07:53:45;0.50;;;0.40;;
4630;SDS011;2328;48.170;11.602;2024-02-21T07:56:15;2.57;;;0.50;;
4630;SDS011;2328;48.170;11.602;2024-02-21T07:58:49;0.70;;;0.70;;
4630;SDS011;2328;48.170;11.602;2024-02-21T08:01:23;0.60;;;0.50;;
4630;SDS011;2328;48.170;11.602;2024-02-21T08:03:53;1.07;;;0.47;;
4630;SDS011;2328;48.170;11.602;2024-02-21T08:06:25;0.60;;;0.60;;
4630;SDS011;2328;48.170;11.602;2024-02-21T08:09:00;0.90;;;0.50;;
4630;SDS011;2328;48.170;11.602;2024-02-21T08:11:32;4.30;;;0.50;;
4630;SDS011;2328;48.170;11.602;2024-02-21T08:14:03;5.33;;;0.60;;
4630;SDS011;2328;48.170;11.602;2024-02-21T08:16:32;0.50;;;0.33;;
4630;SDS011;2328;48.170;11.602;2024-02-21T08:21:49;0.50;;;0.50;;
4630;SDS011;2328;48.170;11.602;2024-02-21T08:24:22;2.33;;;0.73;;
4630;SDS011;2328;48.170;11.602;2024-02-21T08:26:51;1.10;;;0.80;;
4630;SDS011;2328;48.170;11.602;2024-02-21T08:29:35;2.00;;;0.70;;
4630;SDS011;2328;48.170;11.602;2024-02-21T08:32:06;1.33;;;0.50;;
4630;SDS011;2328;48.170;11.602;2024-02-21T08:34:49;1.27;;;0.50;;
4630;SDS011;2328;48.170;11.602;2024-02-21T08:37:17;0.70;;;0.40;;
4630;SDS011;2328;48.170;11.602;2024-02-21T08:39:51;0.60;;;0.50;;
4630;SDS011;2328;48.170;11.602;2024-02-21T08:42:36;0.50;;;0.30;;
4630;SDS011;2328;48.170;11.602;2024-02-21T08:45:07;1.13;;;0.50;;
4630;SDS011;2328;48.170;11.602;2024-02-21T08:47:39;0.50;;;0.37;;
4630;SDS011;2328;48.170;11.602;2024-02-21T08:50:11;1.00;;;0.50;;
4630;SDS011;2328;48.170;11.602;2024-02-21T08:52:53;1.37;;;0.50;;
4630;SDS011;2328;48.170;11.602;2024-02-21T08:55:25;0.80;;;0.47;;
4630;SDS011;2328;48.170;11.602;2024-02-21T08:58:00;1.20;;;0.47;;
4630;SDS011;2328;48.170;11.602;2024-02-21T09:00:36;0.90;;;0.50;;
4630;SDS011;2328;48.170;11.602;2024-02-21T09:03:06;1.00;;;0.40;;
4630;SDS011;2328;48.170;11.602;2024-02-21T09:05:39;0.40;;;0.30;;
4630;SDS011;2328;48.170;11.602;2024-02-21T09:08:11;0.60;;;0.40;;
4630;SDS011;2328;48.170;11.602;2024-02-21T09:14:44;0.57;;;0.40;;
4630;SDS011;2328;48.170;11.602;2024-02-21T09:17:17;1.53;;;0.40;;
4630;SDS011;2328;48.170;11.602;2024-02-21T09:19:47;1.00;;;0.53;;
4630;SDS011;2328;48.170;11.602;2024-02-21T09:22:18;0.67;;;0.50;;
4630;SDS011;2328;48.170;11.602;2024-02-21T09:24:49;0.60;;;0.50;;
4630;SDS011;2328;48.170;11.602;2024-02-21T09:27:17;4.33;;;0.40;;
4630;SDS011;2328;48.170;11.602;2024-02-21T09:29:47;0.70;;;0.60;;
4630;SDS011;2328;48.170;11.602;2024-02-21T09:32:17;1.50;;;0.60;;
4630;SDS011;2328;48.170;11.602;2024-02-21T09:34:49;0.60;;;0.50;;
4630;SDS011;2328;48.170;11.602;2024-02-21T09:37:19;0.80;;;0.50;;
4630;SDS011;2328;48.170;11.602;2024-02-21T09:39:47;0.50;;;0.40;;
4630;SDS011;2328;48.170;11.602;2024-02-21T09:42:17;0.50;;;0.40;;
4630;SDS011;2328;48.170;11.602;2024-02-21T09:44:49;1.20;;;0.53;;
4630;SDS011;2328;48.170;11.602;2024-02-21T09:47:19;0.70;;;0.30;;
4630;SDS011;2328;48.170;11.602;2024-02-21T09:49:52;1.67;;;0.83;;
4630;SDS011;2328;48.170;11.602;2024-02-21T09:52:25;2.33;;;0.30;;
4630;SDS011;2328;48.170;11.602;2024-02-21T09:54:54;0.50;;;0.30;;
4630;SDS011;2328;48.170;11.602;2024-02-21T09:57:26;0.50;;;0.40;;
4630;SDS011;2328;48.170;11.602;2024-02-21T10:00:00;0.50;;;0.40;;
4630;SDS011;2328;48.170;11.602;2024-02-21T10:06:26;0.93;;;0.50;;
4630;SDS011;2328;48.170;11.602;2024-02-21T10:08:59;1.03;;;0.40;;
4630;SDS011;2328;48.170;11.602;2024-02-21T10:11:30;1.23;;;0.40;;
4630;SDS011;2328;48.170;11.602;2024-02-21T10:14:04;0.50;;;0.30;;
4630;SDS011;2328;48.170;11.602;2024-02-21T10:16:35;0.73;;;0.40;;
4630;SDS011;2328;48.170;11.602;2024-02-21T10:19:04;0.50;;;0.37;;
4630;SDS011;2328;48.170;11.602;2024-02-21T10:21:34;0.53;;;0.40;;
4630;SDS011;2328;48.170;11.602;2024-02-21T10:24:13;4.23;;;0.50;;
4630;SDS011;2328;48.170;11.602;2024-02-21T10:26:45;0.47;;;0.33;;
4630;SDS011;2328;48.170;11.602;2024-02-21T10:29:15;2.83;;;0.50;;
4630;SDS011;2328;48.170;11.602;2024-02-21T10:31:45;0.50;;;0.50;;
4630;SDS011;2328;48.170;11.602;2024-02-21T10:34:16;0.50;;;0.40;;
4630;SDS011;2328;48.170;11.602;2024-02-21T10:36:45;0.50;;;0.33;;
4630;SDS011;2328;48.170;11.602;2024-02-21T10:39:18;1.90;;;0.40;;
4630;SDS011;2328;48.170;11.602;2024-02-21T10:41:46;1.97;;;0.43;;
4630;SDS011;2328;48.170;11.602;2024-02-21T10:44:16;0.60;;;0.40;;
4630;SDS011;2328;48.170;11.602;2024-02-21T10:46:47;0.50;;;0.37;;
4630;SDS011;2328;48.170;11.602;2024-02-21T10:49:19;4.23;;;0.30;;
4630;SDS011;2328;48.170;11.602;2024-02-21T10:51:54;0.70;;;0.50;;
4630;SDS011;2328;48.170;11.602;2024-02-21T10:54:34;0.53;;;0.40;;
4630;SDS011;2328;48.170;11.602;2024-02-21T10:57:14;0.40;;;0.23;;
4630;SDS011;2328;48.170;11.602;2024-02-21T10:59:44;0.50;;;0.40;;
4630;SDS011;2328;48.170;11.602;2024-02-21T11:02:13;5.63;;;0.47;;
4630;SDS011;2328;48.170;11.602;2024-02-21T11:04:43;3.10;;;0.50;;
4630;SDS011;2328;48.170;11.602;2024-02-21T11:07:13;0.40;;;0.30;;
4630;SDS011;2328;48.170;11.602;2024-02-21T11:09:52;0.40;;;0.30;;
4630;SDS011;2328;48.170;11.602;2024-02-21T11:12:32;0.60;;;0.40;;
4630;SDS011;2328;48.170;11.602;2024-02-21T11:15:09;0.97;;;0.53;;
4630;SDS011;2328;48.170;11.602;2024-02-21T11:17:42;0.87;;;0.30;;
4630;SDS011;2328;48.170;11.602;2024-02-21T11:20:49;0.40;;;0.30;;
4630;SDS011;2328;48.170;11.602;2024-02-21T11:23:24;0.60;;;0.50;;
4630;SDS011;2328;48.170;11.602;2024-02-21T11:26:10;1.70;;;0.40;;
4630;SDS011;2328;48.170;11.602;2024-02-21T11:28:55;0.63;;;0.43;;
4630;SDS011;2328;48.170;11.602;2024-02-21T11:31:26;0.60;;;0.30;;
4630;SDS011;2328;48.170;11.602;2024-02-21T11:34:08;0.70;;;0.40;;
4630;SDS011;2328;48.170;11.602;2024-02-21T11:39:28;0.93;;;0.50;;
4630;SDS011;2328;48.170;11.602;2024-02-21T11:44:50;0.63;;;0.40;;
4630;SDS011;2328;48.170;11.602;2024-02-21T11:47:33;0.40;;;0.30;;
4630;SDS011;2328;48.170;11.602;2024-02-21T11:50:09;0.93;;;0.40;;
4630;SDS011;2328;48.170;11.602;2024-02-21T11:52:42;1.33;;;0.47;;
4630;SDS011;2328;48.170;11.602;2024-02-21T11:55:11;0.50;;;0.40;;
4630;SDS011;2328;48.170;11.602;2024-02-21T12:00:49;0.50;;;0.40;;
4630;SDS011;2328;48.170;11.602;2024-02-21T12:03:18;0.90;;;0.40;;
4630;SDS011;2328;48.170;11.602;2024-02-21T12:06:17;9.20;;;0.57;;
4630;SDS011;2328;48.170;11.602;2024-02-21T12:08:48;1.70;;;0.47;;
4630;SDS011;2328;48.170;11.602;2024-02-21T12:11:26;0.50;;;0.30;;
4630;SDS011;2328;48.170;11.602;2024-02-21T12:14:08;0.40;;;0.30;;
4630;SDS011;2328;48.170;11.602;2024-02-21T12:16:40;0.50;;;0.30;;
4630;SDS011;2328;48.170;11.602;2024-02-21T12:19:11;0.50;;;0.30;;
4630;SDS011;2328;48.170;11.602;2024-02-21T12:21:43;0.70;;;0.40;;
4630;SDS011;2328;48.170;11.602;2024-02-21T12:24:12;0.50;;;0.50;;
4630;SDS011;2328;48.170;11.602;2024-02-21T12:26:44;0.67;;;0.40;;
4630;SDS011;2328;48.170;11.602;2024-02-21T12:29:15;1.43;;;0.50;;
4630;SDS011;2328;48.170;11.602;2024-02-21T12:31:43;0.50;;;0.30;;
4630;SDS011;2328;48.170;11.602;2024-02-21T12:34:14;0.47;;;0.30;;
4630;SDS011;2328;48.170;11.602;2024-02-21T12:37:40;0.40;;;0.30;;
4630;SDS011;2328;48.170;11.602;2024-02-21T12:40:09;0.50;;;0.30;;
4630;SDS011;2328;48.170;11.602;2024-02-21T12:42:41;0.50;;;0.40;;
4630;SDS011;2328;48.170;11.602;2024-02-21T12:45:10;0.80;;;0.30;;
4630;SDS011;2328;48.170;11.602;2024-02-21T12:47:40;0.50;;;0.30;;
4630;SDS011;2328;48.170;11.602;2024-02-21T12:50:15;0.93;;;0.30;;
4630;SDS011;2328;48.170;11.602;2024-02-21T12:52:48;0.50;;;0.33;;
4630;SDS011;2328;48.170;11.602;2024-02-21T12:55:17;0.50;;;0.33;;
4630;SDS011;2328;48.170;11.602;2024-02-21T12:57:46;0.40;;;0.30;;
4630;SDS011;2328;48.170;11.602;2024-02-21T13:00:15;0.50;;;0.40;;
4630;SDS011;2328;48.170;11.602;2024-02-21T13:02:45;0.90;;;0.30;;
4630;SDS011;2328;48.170;11.602;2024-02-21T13:05:14;0.50;;;0.40;;
4630;SDS011;2328;48.170;11.602;2024-02-21T13:07:43;0.50;;;0.30;;
4630;SDS011;2328;48.170;11.602;2024-02-21T13:10:14;0.40;;;0.30;;
4630;SDS011;2328;48.170;11.602;2024-02-21T13:12:42;7.33;;;0.40;;
4630;SDS011;2328;48.170;11.602;2024-02-21T13:15:11;0.50;;;0.30;;
4630;SDS011;2328;48.170;11.602;2024-02-21T13:17:42;0.50;;;0.30;;
4630;SDS011;2328;48.170;11.602;2024-02-21T13:20:12;0.50;;;0.30;;
4630;SDS011;2328;48.170;11.602;2024-02-21T13:22:42;0.50;;;0.30;;
4630;SDS011;2328;48.170;11.602;2024-02-21T13:25:11;0.50;;;0.30;;
4630;SDS011;2328;48.170;11.602;2024-02-21T13:27:44;0.90;;;0.50;;
4630;SDS011;2328;48.170;11.602;2024-02-21T13:30:13;0.60;;;0.40;;
4630;SDS011;2328;48.170;11.602;2024-02-21T13:32:44;0.50;;;0.40;;
4630;SDS011;2328;48.170;11.602;2024-02-21T13:35:14;0.60;;;0.30;;
4630;SDS011;2328;48.170;11.602;2024-02-21T13:37:47;0.60;;;0.40;;
4630;SDS011;2328;48.170;11.602;2024-02-21T13:40:18;0.50;;;0.30;;
4630;SDS011;2328;48.170;11.602;2024-02-21T13:42:48;0.80;;;0.37;;
4630;SDS011;2328;48.170;11.602;2024-02-21T13:45:18;0.60;;;0.40;;
4630;SDS011;2328;48.170;11.602;2024-02-21T13:47:46;4.43;;;0.50;;
4630;SDS011;2328;48.170;11.602;2024-02-21T13:50:15;0.50;;;0.30;;
4630;SDS011;2328;48.170;11.602;2024-02-21T13:52:45;1.37;;;0.40;;
4630;SDS011;2328;48.170;11.602;2024-02-21T13:55:13;0.50;;;0.30;;
4630;SDS011;2328;48.170;11.602;2024-02-21T13:57:46;0.50;;;0.30;;
4630;SDS011;2328;48.170;11.602;2024-02-21T14:00:16;0.70;;;0.40;;
4630;SDS011;2328;48.170;11.602;2024-02-21T14:02:45;0.50;;;0.30;;
4630;SDS011;2328;48.170;11.602;2024-02-21T14:05:14;0.47;;;0.30;;
4630;SDS011;2328;48.170;11.602;2024-02-21T14:07:43;0.83;;;0.50;;
4630;SDS011;2328;48.170;11.602;2024-02-21T14:10:13;0.40;;;0.30;;
4630;SDS011;2328;48.170;11.602;2024-02-21T14:16:08;1.13;;;0.30;;
4630;SDS011;2328;48.170;11.602;2024-02-21T14:18:54;0.50;;;0.30;;
4630;SDS011;2328;48.170;11.602;2024-02-21T14:21:24;0.60;;;0.30;;
4630;SDS011;2328;48.170;11.602;2024-02-21T14:23:53;0.60;;;0.40;;
4630;SDS011;2328;48.170;11.602;2024-02-21T14:26:23;0.50;;;0.30;;
4630;SDS011;2328;48.170;11.602;2024-02-21T14:28:52;0.53;;;0.43;;
4630;SDS011;2328;48.170;11.602;2024-02-21T14:31:25;1.90;;;0.30;;
4630;SDS011;2328;48.170;11.602;2024-02-21T14:33:55;0.60;;;0.30;;
4630;SDS011;2328;48.170;11.602;2024-02-21T14:36:25;0.50;;;0.40;;
4630;SDS011;2328;48.170;11.602;2024-02-21T14:38:55;1.57;;;0.30;;
4630;SDS011;2328;48.170;11.602;2024-02-21T14:41:27;0.40;;;0.30;;
4630;SDS011;2328;48.170;11.602;2024-02-21T14:43:59;0.50;;;0.40;;
4630;SDS011;2328;48.170;11.602;2024-02-21T14:46:56;6.13;;;0.40;;
4630;SDS011;2328;48.170;11.602;2024-02-21T14:49:26;0.50;;;0.30;;
4630;SDS011;2328;48.170;11.602;2024-02-21T14:51:57;0.60;;;0.30;;
4630;SDS011;2328;48.170;11.602;2024-02-21T14:54:33;0.50;;;0.30;;
4630;SDS011;2328;48.170;11.602;2024-02-21T14:57:02;0.50;;;0.30;;
4630;SDS011;2328;48.170;11.602;2024-02-21T14:59:31;2.33;;;0.30;;
4630;SDS011;2328;48.170;11.602;2024-02-21T15:02:03;0.40;;;0.30;;
4630;SDS011;2328;48.170;11.602;2024-02-21T15:04:34;0.57;;;0.40;;
4630;SDS011;2328;48.170;11.602;2024-02-21T15:07:05;0.50;;;0.30;;
4630;SDS011;2328;48.170;11.602;2024-02-21T15:13:15;0.50;;;0.40;;
4630;SDS011;2328;48.170;11.602;2024-02-21T15:15:44;0.53;;;0.40;;
4630;SDS011;2328;48.170;11.602;2024-02-21T15:21:54;0.50;;;0.30;;
4630;SDS011;2328;48.170;11.602;2024-02-21T15:24:24;0.50;;;0.40;;
4630;SDS011;2328;48.170;11.602;2024-02-21T15:26:57;0.77;;;0.50;;
4630;SDS011;2328;48.170;11.602;2024-02-21T15:29:35;1.37;;;0.40;;
4630;SDS011;2328;48.170;11.602;2024-02-21T15:34:48;0.50;;;0.30;;
4630;SDS011;2328;48.170;11.602;2024-02-21T15:37:46;1.00;;;0.37;;
4630;SDS011;2328;48.170;11.602;2024-02-21T15:40:18;0.50;;;0.40;;
4630;SDS011;2328;48.170;11.602;2024-02-21T15:42:53;0.87;;;0.50;;
4630;SDS011;2328;48.170;11.602;2024-02-21T15:45:23;0.70;;;0.30;;
4630;SDS011;2328;48.170;11.602;2024-02-21T15:47:56;0.50;;;0.30;;
4630;SDS011;2328;48.170;11.602;2024-02-21T15:50:46;1.40;;;0.40;;
4630;SDS011;2328;48.170;11.602;2024-02-21T15:57:01;3.03;;;0.47;;
4630;SDS011;2328;48.170;11.602;2024-02-21T15:59:46;0.70;;;0.30;;
4630;SDS011;2328;48.170;11.602;2024-02-21T16:02:16;0.67;;;0.30;;
4630;SDS011;2328;48.170;11.602;2024-02-21T16:04:46;0.70;;;0.30;;
4630;SDS011;2328;48.170;11.602;2024-02-21T16:07:15;1.70;;;0.40;;